sensor_id;sensor_type;location;lat;lon;timestamp;P1;durP1;ratioP1;P2;durP2;ratioP2
21339;SDS011;10828;47.064;15.422;2022-10-31T00:01:34;21.17;;;7.00;;
21339;SDS011;10828;47.064;15.422;2022-10-31T00:04:01;15.57;;;6.33;;
21339;SDS011;10828;47.064;15.422;2022-10-31T00:06:29;16.80;;;6.87;;
21339;SDS011;10828;47.064;15.422;2022-10-31T00:08:59;15.93;;;6.60;;
21339;SDS011;10828;47.064;15.422;2022-10-31T00:11:25;21.73;;;6.70;;
21339;SDS011;10828;47.064;15.422;2022-10-31T00:13:53;18.43;;;7.53;;
21339;SDS011;10828;47.064;15.422;2022-10-31T00:16:24;19.73;;;7.30;;
21339;SDS011;10828;47.064;15.422;2022-10-31T00:18:54;16.30;;;5.80;;
21339;SDS011;10828;47.064;15.422;2022-10-31T00:21:21;17.10;;;6.80;;
21339;SDS011;10828;47.064;15.422;2022-10-31T00:23:50;14.03;;;7.00;;
21339;SDS011;10828;47.064;15.422;2022-10-31T00:26:20;20.60;;;6.83;;
21339;SDS011;10828;47.064;15.422;2022-10-31T00:28:47;17.70;;;8.00;;
21339;SDS011;10828;47.064;15.422;2022-10-31T00:31:15;25.53;;;7.83;;
21339;SDS011;10828;47.064;15.422;2022-10-31T00:33:43;33.27;;;7.80;;
21339;SDS011;10828;47.064;15.422;2022-10-31T00:36:13;28.30;;;9.23;;
21339;SDS011;10828;47.064;15.422;2022-10-31T00:38:41;26.60;;;8.83;;
21339;SDS011;10828;47.064;15.422;2022-10-31T00:41:09;24.33;;;9.30;;
21339;SDS011;10828;47.064;15.422;2022-10-31T00:43:36;21.13;;;8.67;;
21339;SDS011;10828;47.064;15.422;2022-10-31T00:46:03;20.07;;;7.77;;
21339;SDS011;10828;47.064;15.422;2022-10-31T00:48:35;22.77;;;8.13;;
21339;SDS011;10828;47.064;15.422;2022-10-31T00:51:03;24.07;;;7.60;;
21339;SDS011;10828;47.064;15.422;2022-10-31T00:53:31;24.37;;;9.13;;
21339;SDS011;10828;47.064;15.422;2022-10-31T00:55:57;24.23;;;9.70;;
21339;SDS011;10828;47.064;15.422;2022-10-31T00:58:26;24.20;;;9.00;;
21339;SDS011;10828;47.064;15.422;2022-10-31T01:00:52;33.13;;;10.30;;
21339;SDS011;10828;47.064;15.422;2022-10-31T01:03:26;25.07;;;9.87;;
21339;SDS011;10828;47.064;15.422;2022-10-31T01:05:57;25.13;;;8.50;;
21339;SDS011;10828;47.064;15.422;2022-10-31T01:08:23;24.23;;;9.83;;
21339;SDS011;10828;47.064;15.422;2022-10-31T01:11:07;27.97;;;10.23;;
21339;SDS011;10828;47.064;15.422;2022-10-31T01:13:35;31.77;;;8.83;;
21339;SDS011;10828;47.064;15.422;2022-10-31T01:16:02;23.57;;;8.73;;
21339;SDS011;10828;47.064;15.422;2022-10-31T01:18:29;31.73;;;8.70;;
21339;SDS011;10828;47.064;15.422;2022-10-31T01:21:03;31.63;;;10.07;;
21339;SDS011;10828;47.064;15.422;2022-10-31T01:23:32;26.57;;;8.83;;
21339;SDS011;10828;47.064;15.422;2022-10-31T01:26:13;22.43;;;8.80;;
21339;SDS011;10828;47.064;15.422;2022-10-31T01:28:58;21.40;;;8.50;;
21339;SDS011;10828;47.064;15.422;2022-10-31T01:31:27;22.87;;;9.07;;
21339;SDS011;10828;47.064;15.422;2022-10-31T01:33:55;27.00;;;8.87;;
21339;SDS011;10828;47.064;15.422;2022-10-31T01:38:53;19.80;;;8.63;;
21339;SDS011;10828;47.064;15.422;2022-10-31T01:41:22;21.40;;;9.33;;
21339;SDS011;10828;47.064;15.422;2022-10-31T01:44:02;21.97;;;9.33;;
21339;SDS011;10828;47.064;15.422;2022-10-31T01:48:55;24.40;;;9.53;;
21339;SDS011;10828;47.064;15.422;2022-10-31T01:51:25;26.57;;;10.23;;
21339;SDS011;10828;47.064;15.422;2022-10-31T01:53:55;26.37;;;9.50;;
21339;SDS011;10828;47.064;15.422;2022-10-31T01:56:22;25.10;;;9.50;;
21339;SDS011;10828;47.064;15.422;2022-10-31T01:58:50;22.80;;;10.10;;
21339;SDS011;10828;47.064;15.422;2022-10-31T02:01:19;26.13;;;8.67;;
21339;SDS011;10828;47.064;15.422;2022-10-31T02:03:51;21.60;;;9.50;;
21339;SDS011;10828;47.064;15.422;2022-10-31T02:06:27;20.73;;;9.47;;
21339;SDS011;10828;47.064;15.422;2022-10-31T02:09:03;22.67;;;9.63;;
21339;SDS011;10828;47.064;15.422;2022-10-31T02:11:30;16.93;;;8.20;;
21339;SDS011;10828;47.064;15.422;2022-10-31T02:13:58;23.73;;;9.27;;
21339;SDS011;10828;47.064;15.422;2022-10-31T02:16:27;26.63;;;9.77;;
21339;SDS011;10828;47.064;15.422;2022-10-31T02:18:59;21.97;;;9.70;;
21339;SDS011;10828;47.064;15.422;2022-10-31T02:21:46;19.50;;;9.70;;
21339;SDS011;10828;47.064;15.422;2022-10-31T02:27:09;23.00;;;9.27;;
21339;SDS011;10828;47.064;15.422;2022-10-31T02:29:51;22.20;;;9.40;;
21339;SDS011;10828;47.064;15.422;2022-10-31T02:40:25;19.53;;;8.43;;
21339;SDS011;10828;47.064;15.422;2022-10-31T02:48:09;19.73;;;8.37;;
21339;SDS011;10828;47.064;15.422;2022-10-31T02:50:39;21.53;;;8.40;;
21339;SDS011;10828;47.064;15.422;2022-10-31T02:53:06;23.03;;;8.67;;
21339;SDS011;10828;47.064;15.422;2022-10-31T02:58:09;25.73;;;8.47;;
21339;SDS011;10828;47.064;15.422;2022-10-31T03:01:16;19.90;;;7.87;;
21339;SDS011;10828;47.064;15.422;2022-10-31T03:08:29;18.83;;;8.10;;
21339;SDS011;10828;47.064;15.422;2022-10-31T03:10:58;21.50;;;8.33;;
21339;SDS011;10828;47.064;15.422;2022-10-31T03:15:54;19.93;;;8.73;;
21339;SDS011;10828;47.064;15.422;2022-10-31T03:18:28;20.10;;;8.30;;
21339;SDS011;10828;47.064;15.422;2022-10-31T03:23:23;20.60;;;7.40;;
21339;SDS011;10828;47.064;15.422;2022-10-31T03:25:52;21.80;;;8.53;;
21339;SDS011;10828;47.064;15.422;2022-10-31T03:28:23;25.97;;;9.43;;
21339;SDS011;10828;47.064;15.422;2022-10-31T03:30:51;25.50;;;8.00;;
21339;SDS011;10828;47.064;15.422;2022-10-31T03:33:21;18.43;;;7.90;;
21339;SDS011;10828;47.064;15.422;2022-10-31T03:35:50;17.67;;;7.03;;
21339;SDS011;10828;47.064;15.422;2022-10-31T03:38:22;20.03;;;8.37;;
21339;SDS011;10828;47.064;15.422;2022-10-31T03:40:51;21.70;;;7.80;;
21339;SDS011;10828;47.064;15.422;2022-10-31T03:43:22;20.57;;;7.13;;
21339;SDS011;10828;47.064;15.422;2022-10-31T03:45:50;14.30;;;7.20;;
21339;SDS011;10828;47.064;15.422;2022-10-31T03:48:18;23.50;;;8.03;;
21339;SDS011;10828;47.064;15.422;2022-10-31T03:51:07;24.37;;;7.43;;
21339;SDS011;10828;47.064;15.422;2022-10-31T03:53:39;21.60;;;8.47;;
21339;SDS011;10828;47.064;15.422;2022-10-31T03:58:47;19.97;;;7.63;;
21339;SDS011;10828;47.064;15.422;2022-10-31T04:01:17;16.03;;;6.43;;
21339;SDS011;10828;47.064;15.422;2022-10-31T04:03:46;19.43;;;7.77;;
21339;SDS011;10828;47.064;15.422;2022-10-31T04:06:13;22.07;;;7.30;;
21339;SDS011;10828;47.064;15.422;2022-10-31T04:08:44;17.50;;;6.87;;
21339;SDS011;10828;47.064;15.422;2022-10-31T04:11:13;15.23;;;7.10;;
21339;SDS011;10828;47.064;15.422;2022-10-31T04:13:43;17.40;;;7.67;;
21339;SDS011;10828;47.064;15.422;2022-10-31T04:16:11;16.43;;;7.17;;
21339;SDS011;10828;47.064;15.422;2022-10-31T04:18:38;16.73;;;6.93;;
21339;SDS011;10828;47.064;15.422;2022-10-31T04:21:10;15.80;;;6.80;;
21339;SDS011;10828;47.064;15.422;2022-10-31T04:23:38;16.60;;;7.20;;
21339;SDS011;10828;47.064;15.422;2022-10-31T04:26:07;12.10;;;6.20;;
21339;SDS011;10828;47.064;15.422;2022-10-31T04:28:35;14.00;;;6.70;;
21339;SDS011;10828;47.064;15.422;2022-10-31T04:31:08;14.83;;;6.70;;
21339;SDS011;10828;47.064;15.422;2022-10-31T04:33:36;15.33;;;6.93;;
21339;SDS011;10828;47.064;15.422;2022-10-31T04:36:04;16.43;;;6.17;;
21339;SDS011;10828;47.064;15.422;2022-10-31T04:38:31;15.00;;;6.83;;
21339;SDS011;10828;47.064;15.422;2022-10-31T04:40:58;18.83;;;7.40;;
21339;SDS011;10828;47.064;15.422;2022-10-31T04:43:30;20.50;;;8.03;;
21339;SDS011;10828;47.064;15.422;2022-10-31T04:45:58;15.70;;;6.73;;
21339;SDS011;10828;47.064;15.422;2022-10-31T04:48:30;18.87;;;7.40;;
21339;SDS011;10828;47.064;15.422;2022-10-31T04:51:00;16.13;;;7.27;;
21339;SDS011;10828;47.064;15.422;2022-10-31T04:53:28;16.53;;;6.70;;
21339;SDS011;10828;47.064;15.422;2022-10-31T04:55:58;17.63;;;7.13;;
21339;SDS011;10828;47.064;15.422;2022-10-31T04:58:27;18.67;;;7.77;;
21339;SDS011;10828;47.064;15.422;2022-10-31T05:00:55;17.70;;;7.20;;
21339;SDS011;10828;47.064;15.422;2022-10-31T05:03:22;14.40;;;7.37;;
21339;SDS011;10828;47.064;15.422;2022-10-31T05:05:50;20.07;;;7.77;;
21339;SDS011;10828;47.064;15.422;2022-10-31T05:08:19;22.77;;;8.73;;
21339;SDS011;10828;47.064;15.422;2022-10-31T05:10:45;15.47;;;7.37;;
21339;SDS011;10828;47.064;15.422;2022-10-31T05:13:16;14.47;;;6.50;;
21339;SDS011;10828;47.064;15.422;2022-10-31T05:15:44;16.87;;;7.10;;
21339;SDS011;10828;47.064;15.422;2022-10-31T05:18:10;15.83;;;7.30;;
21339;SDS011;10828;47.064;15.422;2022-10-31T05:20:38;17.73;;;8.20;;
21339;SDS011;10828;47.064;15.422;2022-10-31T05:23:08;14.37;;;7.13;;
21339;SDS011;10828;47.064;15.422;2022-10-31T05:25:35;19.87;;;7.77;;
21339;SDS011;10828;47.064;15.422;2022-10-31T05:28:04;17.60;;;7.93;;
21339;SDS011;10828;47.064;15.422;2022-10-31T05:30:32;21.43;;;8.27;;
21339;SDS011;10828;47.064;15.422;2022-10-31T05:33:00;20.13;;;8.97;;
21339;SDS011;10828;47.064;15.422;2022-10-31T05:35:38;19.33;;;7.90;;
21339;SDS011;10828;47.064;15.422;2022-10-31T05:38:07;16.30;;;7.63;;
21339;SDS011;10828;47.064;15.422;2022-10-31T05:40:35;19.93;;;7.57;;
21339;SDS011;10828;47.064;15.422;2022-10-31T05:43:02;18.83;;;7.77;;
21339;SDS011;10828;47.064;15.422;2022-10-31T05:45:31;12.73;;;6.97;;
21339;SDS011;10828;47.064;15.422;2022-10-31T05:48:00;14.90;;;7.17;;
21339;SDS011;10828;47.064;15.422;2022-10-31T05:50:28;17.03;;;7.70;;
21339;SDS011;10828;47.064;15.422;2022-10-31T05:52:57;19.40;;;6.90;;
21339;SDS011;10828;47.064;15.422;2022-10-31T05:55:26;17.37;;;6.90;;
21339;SDS011;10828;47.064;15.422;2022-10-31T05:57:54;16.67;;;7.70;;
21339;SDS011;10828;47.064;15.422;2022-10-31T06:00:23;16.53;;;7.53;;
21339;SDS011;10828;47.064;15.422;2022-10-31T06:03:01;15.03;;;7.20;;
21339;SDS011;10828;47.064;15.422;2022-10-31T06:05:29;15.20;;;7.20;;
21339;SDS011;10828;47.064;15.422;2022-10-31T06:07:55;16.97;;;9.20;;
21339;SDS011;10828;47.064;15.422;2022-10-31T06:10:29;15.70;;;7.07;;
21339;SDS011;10828;47.064;15.422;2022-10-31T06:12:57;13.80;;;6.37;;
21339;SDS011;10828;47.064;15.422;2022-10-31T06:15:27;18.87;;;8.50;;
21339;SDS011;10828;47.064;15.422;2022-10-31T06:17:59;18.20;;;7.30;;
21339;SDS011;10828;47.064;15.422;2022-10-31T06:20:31;20.33;;;7.80;;
21339;SDS011;10828;47.064;15.422;2022-10-31T06:23:00;15.57;;;7.23;;
21339;SDS011;10828;47.064;15.422;2022-10-31T06:25:33;13.00;;;6.50;;
21339;SDS011;10828;47.064;15.422;2022-10-31T06:28:00;13.10;;;6.30;;
21339;SDS011;10828;47.064;15.422;2022-10-31T06:30:37;17.20;;;7.37;;
21339;SDS011;10828;47.064;15.422;2022-10-31T06:33:12;15.83;;;7.30;;
21339;SDS011;10828;47.064;15.422;2022-10-31T06:35:45;15.00;;;7.40;;
21339;SDS011;10828;47.064;15.422;2022-10-31T06:38:13;16.97;;;7.90;;
21339;SDS011;10828;47.064;15.422;2022-10-31T06:40:49;17.67;;;7.93;;
21339;SDS011;10828;47.064;15.422;2022-10-31T06:43:16;21.20;;;7.87;;
21339;SDS011;10828;47.064;15.422;2022-10-31T06:45:44;21.23;;;8.70;;
21339;SDS011;10828;47.064;15.422;2022-10-31T06:48:12;24.93;;;9.57;;
21339;SDS011;10828;47.064;15.422;2022-10-31T06:50:39;24.27;;;7.97;;
21339;SDS011;10828;47.064;15.422;2022-10-31T06:53:12;20.33;;;7.90;;
21339;SDS011;10828;47.064;15.422;2022-10-31T06:55:41;23.57;;;7.53;;
21339;SDS011;10828;47.064;15.422;2022-10-31T06:58:11;22.33;;;7.20;;
21339;SDS011;10828;47.064;15.422;2022-10-31T07:00:39;13.30;;;6.33;;
21339;SDS011;10828;47.064;15.422;2022-10-31T07:03:10;17.50;;;6.93;;
21339;SDS011;10828;47.064;15.422;2022-10-31T07:05:38;19.10;;;6.97;;
21339;SDS011;10828;47.064;15.422;2022-10-31T07:08:11;19.87;;;7.03;;
21339;SDS011;10828;47.064;15.422;2022-10-31T07:10:43;22.03;;;7.70;;
21339;SDS011;10828;47.064;15.422;2022-10-31T07:13:18;36.73;;;8.50;;
21339;SDS011;10828;47.064;15.422;2022-10-31T07:15:48;16.17;;;7.47;;
21339;SDS011;10828;47.064;15.422;2022-10-31T07:18:16;15.20;;;6.67;;
21339;SDS011;10828;47.064;15.422;2022-10-31T07:20:48;19.20;;;7.33;;
21339;SDS011;10828;47.064;15.422;2022-10-31T07:23:24;14.97;;;6.97;;
21339;SDS011;10828;47.064;15.422;2022-10-31T07:25:59;17.13;;;6.97;;
21339;SDS011;10828;47.064;15.422;2022-10-31T07:28:27;24.17;;;8.27;;
21339;SDS011;10828;47.064;15.422;2022-10-31T07:30:56;12.83;;;6.43;;
21339;SDS011;10828;47.064;15.422;2022-10-31T07:33:23;16.00;;;6.93;;
21339;SDS011;10828;47.064;15.422;2022-10-31T07:35:57;12.07;;;5.77;;
21339;SDS011;10828;47.064;15.422;2022-10-31T07:38:25;15.93;;;7.00;;
21339;SDS011;10828;47.064;15.422;2022-10-31T07:40:52;18.00;;;6.60;;
21339;SDS011;10828;47.064;15.422;2022-10-31T07:43:22;14.53;;;6.27;;
21339;SDS011;10828;47.064;15.422;2022-10-31T07:45:55;13.13;;;6.00;;
21339;SDS011;10828;47.064;15.422;2022-10-31T07:48:25;15.63;;;5.90;;
21339;SDS011;10828;47.064;15.422;2022-10-31T07:50:51;11.70;;;5.93;;
21339;SDS011;10828;47.064;15.422;2022-10-31T07:53:18;13.03;;;5.70;;
21339;SDS011;10828;47.064;15.422;2022-10-31T07:55:47;12.10;;;5.63;;
21339;SDS011;10828;47.064;15.422;2022-10-31T07:58:19;13.70;;;6.00;;
21339;SDS011;10828;47.064;15.422;2022-10-31T08:01:06;12.60;;;5.73;;
21339;SDS011;10828;47.064;15.422;2022-10-31T08:03:37;10.67;;;5.80;;
21339;SDS011;10828;47.064;15.422;2022-10-31T08:06:04;19.10;;;6.43;;
21339;SDS011;10828;47.064;15.422;2022-10-31T08:08:31;11.10;;;5.23;;
21339;SDS011;10828;47.064;15.422;2022-10-31T08:11:05;16.87;;;6.87;;
21339;SDS011;10828;47.064;15.422;2022-10-31T08:13:32;21.13;;;5.57;;
21339;SDS011;10828;47.064;15.422;2022-10-31T08:16:07;16.17;;;5.37;;
21339;SDS011;10828;47.064;15.422;2022-10-31T08:18:41;22.03;;;5.37;;
21339;SDS011;10828;47.064;15.422;2022-10-31T08:21:08;18.03;;;5.60;;
21339;SDS011;10828;47.064;15.422;2022-10-31T08:23:37;12.10;;;5.47;;
21339;SDS011;10828;47.064;15.422;2022-10-31T08:26:04;18.80;;;5.33;;
21339;SDS011;10828;47.064;15.422;2022-10-31T08:28:42;13.77;;;5.33;;
21339;SDS011;10828;47.064;15.422;2022-10-31T08:31:13;21.00;;;5.57;;
21339;SDS011;10828;47.064;15.422;2022-10-31T08:33:42;15.87;;;5.13;;
21339;SDS011;10828;47.064;15.422;2022-10-31T08:36:09;12.20;;;4.90;;
21339;SDS011;10828;47.064;15.422;2022-10-31T08:38:38;15.57;;;5.40;;
21339;SDS011;10828;47.064;15.422;2022-10-31T08:41:07;14.87;;;5.77;;
21339;SDS011;10828;47.064;15.422;2022-10-31T08:46:05;11.57;;;5.10;;
21339;SDS011;10828;47.064;15.422;2022-10-31T08:48:34;11.23;;;5.07;;
21339;SDS011;10828;47.064;15.422;2022-10-31T08:51:09;14.93;;;5.20;;
21339;SDS011;10828;47.064;15.422;2022-10-31T08:53:36;12.00;;;4.80;;
21339;SDS011;10828;47.064;15.422;2022-10-31T08:56:04;20.20;;;6.13;;
21339;SDS011;10828;47.064;15.422;2022-10-31T08:58:42;14.03;;;5.80;;
21339;SDS011;10828;47.064;15.422;2022-10-31T09:01:08;17.30;;;4.80;;
21339;SDS011;10828;47.064;15.422;2022-10-31T09:03:34;13.63;;;4.90;;
21339;SDS011;10828;47.064;15.422;2022-10-31T09:06:02;16.47;;;5.03;;
21339;SDS011;10828;47.064;15.422;2022-10-31T09:08:32;11.97;;;3.70;;
21339;SDS011;10828;47.064;15.422;2022-10-31T09:11:00;17.23;;;5.07;;
21339;SDS011;10828;47.064;15.422;2022-10-31T09:13:26;14.63;;;4.37;;
21339;SDS011;10828;47.064;15.422;2022-10-31T09:16:05;13.13;;;3.90;;
21339;SDS011;10828;47.064;15.422;2022-10-31T09:18:32;14.50;;;5.57;;
21339;SDS011;10828;47.064;15.422;2022-10-31T09:21:04;24.23;;;9.83;;
21339;SDS011;10828;47.064;15.422;2022-10-31T09:23:34;16.63;;;4.57;;
21339;SDS011;10828;47.064;15.422;2022-10-31T09:26:00;16.43;;;4.97;;
21339;SDS011;10828;47.064;15.422;2022-10-31T09:28:34;13.70;;;4.67;;
21339;SDS011;10828;47.064;15.422;2022-10-31T09:33:53;13.53;;;4.27;;
21339;SDS011;10828;47.064;15.422;2022-10-31T09:36:20;13.23;;;3.97;;
21339;SDS011;10828;47.064;15.422;2022-10-31T09:38:52;12.00;;;3.87;;
21339;SDS011;10828;47.064;15.422;2022-10-31T09:43:57;16.67;;;4.40;;
21339;SDS011;10828;47.064;15.422;2022-10-31T09:51:59;10.33;;;3.80;;
21339;SDS011;10828;47.064;15.422;2022-10-31T09:57:00;15.93;;;3.93;;
21339;SDS011;10828;47.064;15.422;2022-10-31T09:59:30;13.57;;;4.10;;
21339;SDS011;10828;47.064;15.422;2022-10-31T10:01:59;13.97;;;3.60;;
21339;SDS011;10828;47.064;15.422;2022-10-31T10:04:44;10.37;;;4.40;;
21339;SDS011;10828;47.064;15.422;2022-10-31T10:09:56;21.63;;;4.67;;
21339;SDS011;10828;47.064;15.422;2022-10-31T10:17:53;14.97;;;4.23;;
21339;SDS011;10828;47.064;15.422;2022-10-31T10:20:31;9.07;;;3.90;;
21339;SDS011;10828;47.064;15.422;2022-10-31T10:25:40;14.70;;;4.23;;
21339;SDS011;10828;47.064;15.422;2022-10-31T10:34:06;9.80;;;3.80;;
21339;SDS011;10828;47.064;15.422;2022-10-31T10:36:14;9.43;;;3.83;;
21339;SDS011;10828;47.064;15.422;2022-10-31T10:39:01;18.93;;;4.67;;
21339;SDS011;10828;47.064;15.422;2022-10-31T10:41:30;13.03;;;3.63;;
21339;SDS011;10828;47.064;15.422;2022-10-31T10:43:57;17.30;;;4.10;;
21339;SDS011;10828;47.064;15.422;2022-10-31T10:46:42;13.33;;;4.20;;
21339;SDS011;10828;47.064;15.422;2022-10-31T10:55:03;11.07;;;3.67;;
21339;SDS011;10828;47.064;15.422;2022-10-31T10:57:53;15.27;;;3.90;;
21339;SDS011;10828;47.064;15.422;2022-10-31T11:00:22;7.50;;;3.30;;
21339;SDS011;10828;47.064;15.422;2022-10-31T11:02:49;10.37;;;3.70;;
21339;SDS011;10828;47.064;15.422;2022-10-31T11:07:54;17.03;;;3.57;;
21339;SDS011;10828;47.064;15.422;2022-10-31T11:10:26;13.80;;;3.57;;
21339;SDS011;10828;47.064;15.422;2022-10-31T11:13:01;11.87;;;4.10;;
21339;SDS011;10828;47.064;15.422;2022-10-31T11:15:29;13.87;;;4.03;;
21339;SDS011;10828;47.064;15.422;2022-10-31T11:17:57;12.50;;;3.93;;
21339;SDS011;10828;47.064;15.422;2022-10-31T11:20:34;11.87;;;3.87;;
21339;SDS011;10828;47.064;15.422;2022-10-31T11:23:02;10.10;;;3.87;;
21339;SDS011;10828;47.064;15.422;2022-10-31T11:25:28;18.20;;;5.10;;
21339;SDS011;10828;47.064;15.422;2022-10-31T11:28:04;18.67;;;4.17;;
21339;SDS011;10828;47.064;15.422;2022-10-31T11:30:30;12.30;;;3.80;;
21339;SDS011;10828;47.064;15.422;2022-10-31T11:33:01;10.20;;;3.10;;
21339;SDS011;10828;47.064;15.422;2022-10-31T11:35:30;12.40;;;4.27;;
21339;SDS011;10828;47.064;15.422;2022-10-31T11:37:58;11.43;;;3.43;;
21339;SDS011;10828;47.064;15.422;2022-10-31T11:40:25;17.33;;;4.27;;
21339;SDS011;10828;47.064;15.422;2022-10-31T11:42:51;8.80;;;3.60;;
21339;SDS011;10828;47.064;15.422;2022-10-31T11:45:35;10.70;;;3.40;;
21339;SDS011;10828;47.064;15.422;2022-10-31T11:48:21;17.70;;;3.67;;
21339;SDS011;10828;47.064;15.422;2022-10-31T11:50:49;13.07;;;3.17;;
21339;SDS011;10828;47.064;15.422;2022-10-31T11:53:17;16.87;;;3.73;;
21339;SDS011;10828;47.064;15.422;2022-10-31T11:59:01;15.90;;;3.83;;
21339;SDS011;10828;47.064;15.422;2022-10-31T12:01:29;7.63;;;3.43;;
21339;SDS011;10828;47.064;15.422;2022-10-31T12:06:34;12.40;;;3.40;;
21339;SDS011;10828;47.064;15.422;2022-10-31T12:12:04;14.23;;;3.63;;
21339;SDS011;10828;47.064;15.422;2022-10-31T12:17:29;9.17;;;3.53;;
21339;SDS011;10828;47.064;15.422;2022-10-31T12:32:59;11.20;;;4.37;;
21339;SDS011;10828;47.064;15.422;2022-10-31T12:35:36;13.37;;;4.47;;
21339;SDS011;10828;47.064;15.422;2022-10-31T12:38:21;10.50;;;3.30;;
21339;SDS011;10828;47.064;15.422;2022-10-31T12:50:58;11.13;;;3.57;;
21339;SDS011;10828;47.064;15.422;2022-10-31T12:53:47;15.13;;;3.43;;
21339;SDS011;10828;47.064;15.422;2022-10-31T12:58:50;12.20;;;4.10;;
21339;SDS011;10828;47.064;15.422;2022-10-31T13:01:22;13.93;;;3.50;;
21339;SDS011;10828;47.064;15.422;2022-10-31T13:03:53;11.70;;;3.33;;
21339;SDS011;10828;47.064;15.422;2022-10-31T13:06:25;14.03;;;3.40;;
21339;SDS011;10828;47.064;15.422;2022-10-31T13:09:06;9.97;;;3.67;;
21339;SDS011;10828;47.064;15.422;2022-10-31T13:11:35;9.00;;;3.23;;
21339;SDS011;10828;47.064;15.422;2022-10-31T13:14:26;10.17;;;3.63;;
21339;SDS011;10828;47.064;15.422;2022-10-31T13:16:50;12.73;;;3.60;;
21339;SDS011;10828;47.064;15.422;2022-10-31T13:24:18;12.93;;;3.80;;
21339;SDS011;10828;47.064;15.422;2022-10-31T13:26:57;9.93;;;3.67;;
21339;SDS011;10828;47.064;15.422;2022-10-31T13:31:55;6.57;;;3.40;;
21339;SDS011;10828;47.064;15.422;2022-10-31T13:37:18;14.30;;;4.00;;
21339;SDS011;10828;47.064;15.422;2022-10-31T13:43:13;8.87;;;3.60;;
21339;SDS011;10828;47.064;15.422;2022-10-31T13:45:20;10.17;;;3.80;;
21339;SDS011;10828;47.064;15.422;2022-10-31T13:48:00;8.40;;;3.30;;
21339;SDS011;10828;47.064;15.422;2022-10-31T13:50:29;7.70;;;2.93;;
21339;SDS011;10828;47.064;15.422;2022-10-31T13:55:43;7.23;;;3.53;;
21339;SDS011;10828;47.064;15.422;2022-10-31T13:58:29;6.73;;;3.40;;
21339;SDS011;10828;47.064;15.422;2022-10-31T14:03:42;10.70;;;3.80;;
21339;SDS011;10828;47.064;15.422;2022-10-31T14:06:10;10.93;;;3.70;;
21339;SDS011;10828;47.064;15.422;2022-10-31T14:08:39;9.33;;;3.30;;
21339;SDS011;10828;47.064;15.422;2022-10-31T14:11:07;11.53;;;3.70;;
21339;SDS011;10828;47.064;15.422;2022-10-31T14:13:36;10.57;;;4.00;;
21339;SDS011;10828;47.064;15.422;2022-10-31T14:16:20;11.63;;;3.83;;
21339;SDS011;10828;47.064;15.422;2022-10-31T14:18:51;10.97;;;3.83;;
21339;SDS011;10828;47.064;15.422;2022-10-31T14:23:51;16.13;;;4.73;;
21339;SDS011;10828;47.064;15.422;2022-10-31T14:26:21;9.50;;;3.97;;
21339;SDS011;10828;47.064;15.422;2022-10-31T14:29:00;9.33;;;3.93;;
21339;SDS011;10828;47.064;15.422;2022-10-31T14:31:31;9.70;;;3.43;;
21339;SDS011;10828;47.064;15.422;2022-10-31T14:41:34;9.57;;;3.93;;
21339;SDS011;10828;47.064;15.422;2022-10-31T14:44:12;11.67;;;4.20;;
21339;SDS011;10828;47.064;15.422;2022-10-31T14:51:54;8.03;;;4.50;;
21339;SDS011;10828;47.064;15.422;2022-10-31T14:54:39;9.20;;;4.43;;
21339;SDS011;10828;47.064;15.422;2022-10-31T14:57:13;17.17;;;5.20;;
21339;SDS011;10828;47.064;15.422;2022-10-31T14:59:42;10.50;;;3.87;;
21339;SDS011;10828;47.064;15.422;2022-10-31T15:02:14;10.43;;;4.30;;
21339;SDS011;10828;47.064;15.422;2022-10-31T15:04:43;15.33;;;4.23;;
21339;SDS011;10828;47.064;15.422;2022-10-31T15:07:16;13.03;;;4.17;;
21339;SDS011;10828;47.064;15.422;2022-10-31T15:09:54;12.27;;;4.27;;
21339;SDS011;10828;47.064;15.422;2022-10-31T15:12:25;8.43;;;4.40;;
21339;SDS011;10828;47.064;15.422;2022-10-31T15:14:53;11.47;;;4.20;;
21339;SDS011;10828;47.064;15.422;2022-10-31T15:17:20;13.70;;;4.77;;
21339;SDS011;10828;47.064;15.422;2022-10-31T15:19:48;11.27;;;5.17;;
21339;SDS011;10828;47.064;15.422;2022-10-31T15:22:18;7.43;;;4.20;;
21339;SDS011;10828;47.064;15.422;2022-10-31T15:24:47;11.27;;;5.00;;
21339;SDS011;10828;47.064;15.422;2022-10-31T15:27:16;21.27;;;6.20;;
21339;SDS011;10828;47.064;15.422;2022-10-31T15:29:49;11.17;;;4.70;;
21339;SDS011;10828;47.064;15.422;2022-10-31T15:32:19;9.40;;;4.60;;
21339;SDS011;10828;47.064;15.422;2022-10-31T15:34:47;16.37;;;5.63;;
21339;SDS011;10828;47.064;15.422;2022-10-31T15:37:19;16.33;;;5.67;;
21339;SDS011;10828;47.064;15.422;2022-10-31T15:39:46;12.90;;;6.00;;
21339;SDS011;10828;47.064;15.422;2022-10-31T15:42:30;18.27;;;5.97;;
21339;SDS011;10828;47.064;15.422;2022-10-31T15:47:26;15.93;;;6.10;;
21339;SDS011;10828;47.064;15.422;2022-10-31T15:50:02;12.10;;;6.23;;
21339;SDS011;10828;47.064;15.422;2022-10-31T15:55:17;14.67;;;6.37;;
21339;SDS011;10828;47.064;15.422;2022-10-31T15:58:11;16.77;;;6.87;;
21339;SDS011;10828;47.064;15.422;2022-10-31T16:00:40;19.73;;;7.43;;
21339;SDS011;10828;47.064;15.422;2022-10-31T16:03:23;11.60;;;6.00;;
21339;SDS011;10828;47.064;15.422;2022-10-31T16:05:52;19.30;;;7.27;;
21339;SDS011;10828;47.064;15.422;2022-10-31T16:13:41;14.50;;;7.57;;
21339;SDS011;10828;47.064;15.422;2022-10-31T16:16:13;17.33;;;7.80;;
21339;SDS011;10828;47.064;15.422;2022-10-31T16:18:40;14.67;;;6.93;;
21339;SDS011;10828;47.064;15.422;2022-10-31T16:21:09;17.47;;;7.43;;
21339;SDS011;10828;47.064;15.422;2022-10-31T16:23:36;15.27;;;7.03;;
21339;SDS011;10828;47.064;15.422;2022-10-31T16:26:17;14.03;;;7.30;;
21339;SDS011;10828;47.064;15.422;2022-10-31T16:28:53;20.13;;;7.77;;
21339;SDS011;10828;47.064;15.422;2022-10-31T16:31:37;16.83;;;7.67;;
21339;SDS011;10828;47.064;15.422;2022-10-31T16:34:14;18.70;;;7.37;;
21339;SDS011;10828;47.064;15.422;2022-10-31T16:36:42;16.73;;;8.07;;
21339;SDS011;10828;47.064;15.422;2022-10-31T16:39:10;20.27;;;7.73;;
21339;SDS011;10828;47.064;15.422;2022-10-31T16:44:17;21.00;;;7.97;;
21339;SDS011;10828;47.064;15.422;2022-10-31T16:49:30;21.77;;;7.93;;
21339;SDS011;10828;47.064;15.422;2022-10-31T16:51:57;21.40;;;8.67;;
21339;SDS011;10828;47.064;15.422;2022-10-31T16:54:25;16.97;;;8.47;;
21339;SDS011;10828;47.064;15.422;2022-10-31T16:56:52;18.03;;;7.93;;
21339;SDS011;10828;47.064;15.422;2022-10-31T16:59:18;15.90;;;8.33;;
21339;SDS011;10828;47.064;15.422;2022-10-31T17:01:47;16.77;;;8.10;;
21339;SDS011;10828;47.064;15.422;2022-10-31T17:04:20;16.33;;;8.27;;
21339;SDS011;10828;47.064;15.422;2022-10-31T17:06:47;17.00;;;8.30;;
21339;SDS011;10828;47.064;15.422;2022-10-31T17:09:15;18.00;;;9.03;;
21339;SDS011;10828;47.064;15.422;2022-10-31T17:11:43;27.10;;;9.90;;
21339;SDS011;10828;47.064;15.422;2022-10-31T17:14:16;26.67;;;9.10;;
21339;SDS011;10828;47.064;15.422;2022-10-31T17:16:44;21.20;;;8.70;;
21339;SDS011;10828;47.064;15.422;2022-10-31T17:19:10;19.60;;;9.00;;
21339;SDS011;10828;47.064;15.422;2022-10-31T17:21:37;20.33;;;8.60;;
21339;SDS011;10828;47.064;15.422;2022-10-31T17:24:12;17.70;;;8.60;;
21339;SDS011;10828;47.064;15.422;2022-10-31T17:26:41;19.57;;;8.90;;
21339;SDS011;10828;47.064;15.422;2022-10-31T17:31:37;22.23;;;8.73;;